Terminal Aerodrome Forecast
Issued by NWS

Home | Current Version | Previous Version | Text Only | Print | Product List | Glossary On
Versions: 1 2 3 4 5 6 7 8 9 10 11 12 13 14 15 16 17 18 19 20 21 22 23 24 25
000
FTUS43 KAPX 281720
TAFAPN
TAF
KAPN 281720Z 2818/2918 22010KT P6SM FEW040 SCT280
     FM290000 18004KT P6SM BKN230
     FM290300 18005KT P6SM OVC170
     FM290900 20005KT P6SM -SHRA BKN050 OVC090
     FM291300 19004KT 6SM -SHRA BR SCT025 OVC040=

USA.gov is the U.S. government's official web portal to all federal, state and local government web resources and services.